Terminal Aerodrome Forecast
Issued by NWS

Home | Current Version | Previous Version | Text Only | Print | Product List | Glossary On
Versions: 1 2 3 4 5 6 7 8 9 10 11 12 13 14 15 16 17 18 19 20 21 22 23 24 25 26 27 28 29 30 31 32 33 34 35 36 37 38 39 40 41 42 43 44 45 46
000
FTAK31 PANC 131741 CCA
TAFADQ
TAF COR
PADQ 131741Z 1318/1418 09009KT P6SM VCSH BKN020 OVC050
      TEMPO 1318/1321 4SM -RA BR OVC010
     FM132200 10009KT P6SM VCSH OVC012
     FM140400 09005KT P6SM OVC008=

USA.gov is the U.S. government's official web portal to all federal, state and local government web resources and services.